sensor_id;sensor_type;location;lat;lon;timestamp;P1;durP1;ratioP1;P2;durP2;ratioP2
47021;SDS011;32779;52.264;6.154;2022-08-16T00:01:56;6.55;;;4.65;;
47021;SDS011;32779;52.264;6.154;2022-08-16T00:04:23;8.10;;;4.47;;
47021;SDS011;32779;52.264;6.154;2022-08-16T00:06:48;6.57;;;4.30;;
47021;SDS011;32779;52.264;6.154;2022-08-16T00:09:14;6.05;;;4.25;;
47021;SDS011;32779;52.264;6.154;2022-08-16T00:11:40;6.80;;;4.60;;
47021;SDS011;32779;52.264;6.154;2022-08-16T00:14:08;6.60;;;4.60;;
47021;SDS011;32779;52.264;6.154;2022-08-16T00:16:36;11.00;;;4.43;;
47021;SDS011;32779;52.264;6.154;2022-08-16T00:19:02;6.75;;;4.10;;
47021;SDS011;32779;52.264;6.154;2022-08-16T00:21:29;6.43;;;4.15;;
47021;SDS011;32779;52.264;6.154;2022-08-16T00:23:55;6.93;;;3.95;;
47021;SDS011;32779;52.264;6.154;2022-08-16T00:26:21;6.40;;;4.50;;
47021;SDS011;32779;52.264;6.154;2022-08-16T00:28:47;9.05;;;4.35;;
47021;SDS011;32779;52.264;6.154;2022-08-16T00:31:13;7.40;;;3.88;;
47021;SDS011;32779;52.264;6.154;2022-08-16T00:33:38;5.93;;;4.43;;
47021;SDS011;32779;52.264;6.154;2022-08-16T00:36:04;7.28;;;3.88;;
47021;SDS011;32779;52.264;6.154;2022-08-16T00:38:30;10.55;;;4.55;;
47021;SDS011;32779;52.264;6.154;2022-08-16T00:40:55;4.50;;;3.92;;
47021;SDS011;32779;52.264;6.154;2022-08-16T00:43:25;8.38;;;3.55;;
47021;SDS011;32779;52.264;6.154;2022-08-16T00:48:43;8.80;;;4.05;;
47021;SDS011;32779;52.264;6.154;2022-08-16T00:51:09;9.07;;;4.80;;
47021;SDS011;32779;52.264;6.154;2022-08-16T00:53:37;7.45;;;3.92;;
47021;SDS011;32779;52.264;6.154;2022-08-16T00:56:05;8.27;;;4.10;;
47021;SDS011;32779;52.264;6.154;2022-08-16T00:58:36;5.57;;;4.25;;
47021;SDS011;32779;52.264;6.154;2022-08-16T01:01:06;5.75;;;4.80;;
47021;SDS011;32779;52.264;6.154;2022-08-16T01:03:33;9.57;;;5.35;;
47021;SDS011;32779;52.264;6.154;2022-08-16T01:05:59;7.97;;;5.32;;
47021;SDS011;32779;52.264;6.154;2022-08-16T01:08:26;9.40;;;5.00;;
47021;SDS011;32779;52.264;6.154;2022-08-16T01:10:52;6.68;;;5.28;;
47021;SDS011;32779;52.264;6.154;2022-08-16T01:13:21;7.95;;;5.07;;
47021;SDS011;32779;52.264;6.154;2022-08-16T01:15:49;7.63;;;5.43;;
47021;SDS011;32779;52.264;6.154;2022-08-16T01:18:20;6.68;;;5.47;;
47021;SDS011;32779;52.264;6.154;2022-08-16T01:20:52;8.70;;;5.72;;
47021;SDS011;32779;52.264;6.154;2022-08-16T01:23:43;6.15;;;4.97;;
47021;SDS011;32779;52.264;6.154;2022-08-16T01:26:27;6.93;;;5.20;;
47021;SDS011;32779;52.264;6.154;2022-08-16T01:28:56;8.60;;;5.53;;
47021;SDS011;32779;52.264;6.154;2022-08-16T01:31:25;8.18;;;5.68;;
47021;SDS011;32779;52.264;6.154;2022-08-16T01:33:50;13.82;;;7.00;;
47021;SDS011;32779;52.264;6.154;2022-08-16T01:36:16;9.10;;;6.82;;
47021;SDS011;32779;52.264;6.154;2022-08-16T01:38:43;9.65;;;6.60;;
47021;SDS011;32779;52.264;6.154;2022-08-16T01:41:12;8.85;;;6.90;;
47021;SDS011;32779;52.264;6.154;2022-08-16T01:43:41;9.73;;;6.95;;
47021;SDS011;32779;52.264;6.154;2022-08-16T01:46:19;8.57;;;6.68;;
47021;SDS011;32779;52.264;6.154;2022-08-16T01:48:53;10.35;;;6.95;;
47021;SDS011;32779;52.264;6.154;2022-08-16T01:51:21;8.52;;;6.63;;
47021;SDS011;32779;52.264;6.154;2022-08-16T01:53:49;12.13;;;8.18;;
47021;SDS011;32779;52.264;6.154;2022-08-16T01:56:16;8.85;;;7.45;;
47021;SDS011;32779;52.264;6.154;2022-08-16T01:58:42;12.73;;;7.40;;
47021;SDS011;32779;52.264;6.154;2022-08-16T02:01:07;10.52;;;8.00;;
47021;SDS011;32779;52.264;6.154;2022-08-16T02:03:33;10.75;;;7.13;;
47021;SDS011;32779;52.264;6.154;2022-08-16T02:05:58;11.82;;;8.57;;
47021;SDS011;32779;52.264;6.154;2022-08-16T02:08:24;12.43;;;8.43;;
47021;SDS011;32779;52.264;6.154;2022-08-16T02:10:50;10.82;;;8.00;;
47021;SDS011;32779;52.264;6.154;2022-08-16T02:13:18;14.73;;;7.65;;
47021;SDS011;32779;52.264;6.154;2022-08-16T02:15:45;10.38;;;7.75;;
47021;SDS011;32779;52.264;6.154;2022-08-16T02:18:10;16.95;;;8.00;;
47021;SDS011;32779;52.264;6.154;2022-08-16T02:20:37;13.63;;;8.80;;
47021;SDS011;32779;52.264;6.154;2022-08-16T02:23:04;10.50;;;7.88;;
47021;SDS011;32779;52.264;6.154;2022-08-16T02:25:31;11.25;;;8.20;;
47021;SDS011;32779;52.264;6.154;2022-08-16T02:27:58;9.95;;;7.97;;
47021;SDS011;32779;52.264;6.154;2022-08-16T02:30:25;9.65;;;7.43;;
47021;SDS011;32779;52.264;6.154;2022-08-16T02:32:53;10.85;;;8.50;;
47021;SDS011;32779;52.264;6.154;2022-08-16T02:35:19;10.18;;;8.13;;
47021;SDS011;32779;52.264;6.154;2022-08-16T02:37:45;14.52;;;8.48;;
47021;SDS011;32779;52.264;6.154;2022-08-16T02:40:11;14.68;;;9.63;;
47021;SDS011;32779;52.264;6.154;2022-08-16T02:42:40;12.23;;;8.75;;
47021;SDS011;32779;52.264;6.154;2022-08-16T02:45:09;13.80;;;9.65;;
47021;SDS011;32779;52.264;6.154;2022-08-16T02:47:35;11.98;;;8.85;;
47021;SDS011;32779;52.264;6.154;2022-08-16T02:50:01;12.68;;;8.55;;
47021;SDS011;32779;52.264;6.154;2022-08-16T02:52:28;15.95;;;10.23;;
47021;SDS011;32779;52.264;6.154;2022-08-16T02:54:53;13.00;;;8.75;;
47021;SDS011;32779;52.264;6.154;2022-08-16T02:57:19;11.77;;;8.88;;
47021;SDS011;32779;52.264;6.154;2022-08-16T02:59:45;17.60;;;10.13;;
47021;SDS011;32779;52.264;6.154;2022-08-16T03:02:10;13.70;;;9.27;;
47021;SDS011;32779;52.264;6.154;2022-08-16T03:04:37;14.48;;;9.77;;
47021;SDS011;32779;52.264;6.154;2022-08-16T03:07:03;13.98;;;9.85;;
47021;SDS011;32779;52.264;6.154;2022-08-16T03:09:30;12.07;;;9.05;;
47021;SDS011;32779;52.264;6.154;2022-08-16T03:11:56;13.35;;;8.40;;
47021;SDS011;32779;52.264;6.154;2022-08-16T03:14:21;14.57;;;9.88;;
47021;SDS011;32779;52.264;6.154;2022-08-16T03:16:47;14.52;;;9.32;;
47021;SDS011;32779;52.264;6.154;2022-08-16T03:19:13;12.93;;;9.45;;
47021;SDS011;32779;52.264;6.154;2022-08-16T03:21:39;12.32;;;8.60;;
47021;SDS011;32779;52.264;6.154;2022-08-16T03:24:08;14.70;;;9.23;;
47021;SDS011;32779;52.264;6.154;2022-08-16T03:26:33;12.15;;;9.20;;
47021;SDS011;32779;52.264;6.154;2022-08-16T03:28:59;14.82;;;8.88;;
47021;SDS011;32779;52.264;6.154;2022-08-16T03:31:25;14.80;;;9.38;;
47021;SDS011;32779;52.264;6.154;2022-08-16T03:33:50;12.07;;;8.38;;
47021;SDS011;32779;52.264;6.154;2022-08-16T03:36:16;9.60;;;7.90;;
47021;SDS011;32779;52.264;6.154;2022-08-16T03:38:42;12.90;;;8.48;;
47021;SDS011;32779;52.264;6.154;2022-08-16T03:41:08;13.27;;;9.65;;
47021;SDS011;32779;52.264;6.154;2022-08-16T03:43:34;12.73;;;8.57;;
47021;SDS011;32779;52.264;6.154;2022-08-16T03:46:00;11.88;;;8.93;;
47021;SDS011;32779;52.264;6.154;2022-08-16T03:48:28;12.65;;;9.45;;
47021;SDS011;32779;52.264;6.154;2022-08-16T03:50:57;11.25;;;8.43;;
47021;SDS011;32779;52.264;6.154;2022-08-16T03:53:23;13.60;;;8.95;;
47021;SDS011;32779;52.264;6.154;2022-08-16T03:55:49;14.20;;;9.27;;
47021;SDS011;32779;52.264;6.154;2022-08-16T03:58:15;17.55;;;10.07;;
47021;SDS011;32779;52.264;6.154;2022-08-16T04:00:42;16.58;;;8.68;;
47021;SDS011;32779;52.264;6.154;2022-08-16T04:03:08;14.82;;;9.25;;
47021;SDS011;32779;52.264;6.154;2022-08-16T04:05:34;12.05;;;8.68;;
47021;SDS011;32779;52.264;6.154;2022-08-16T04:08:05;12.23;;;9.35;;
47021;SDS011;32779;52.264;6.154;2022-08-16T04:10:31;13.82;;;9.27;;
47021;SDS011;32779;52.264;6.154;2022-08-16T04:12:57;11.65;;;8.32;;
47021;SDS011;32779;52.264;6.154;2022-08-16T04:15:23;12.95;;;9.00;;
47021;SDS011;32779;52.264;6.154;2022-08-16T04:17:50;11.40;;;9.13;;
47021;SDS011;32779;52.264;6.154;2022-08-16T04:20:16;14.18;;;9.55;;
47021;SDS011;32779;52.264;6.154;2022-08-16T04:22:42;13.43;;;9.77;;
47021;SDS011;32779;52.264;6.154;2022-08-16T04:25:09;16.50;;;10.02;;
47021;SDS011;32779;52.264;6.154;2022-08-16T04:27:36;15.70;;;11.63;;
47021;SDS011;32779;52.264;6.154;2022-08-16T04:30:05;19.27;;;11.40;;
47021;SDS011;32779;52.264;6.154;2022-08-16T04:32:32;17.83;;;11.27;;
47021;SDS011;32779;52.264;6.154;2022-08-16T04:34:58;17.00;;;11.68;;
47021;SDS011;32779;52.264;6.154;2022-08-16T04:37:24;16.88;;;12.07;;
47021;SDS011;32779;52.264;6.154;2022-08-16T04:39:49;17.42;;;11.75;;
47021;SDS011;32779;52.264;6.154;2022-08-16T04:42:15;16.50;;;11.65;;
47021;SDS011;32779;52.264;6.154;2022-08-16T04:44:41;15.45;;;10.70;;
47021;SDS011;32779;52.264;6.154;2022-08-16T04:47:07;21.05;;;12.70;;
47021;SDS011;32779;52.264;6.154;2022-08-16T04:49:33;18.65;;;11.98;;
47021;SDS011;32779;52.264;6.154;2022-08-16T04:51:59;20.75;;;11.95;;
47021;SDS011;32779;52.264;6.154;2022-08-16T04:54:25;17.42;;;12.25;;
47021;SDS011;32779;52.264;6.154;2022-08-16T04:56:51;17.05;;;11.43;;
47021;SDS011;32779;52.264;6.154;2022-08-16T04:59:17;17.23;;;13.40;;
47021;SDS011;32779;52.264;6.154;2022-08-16T05:01:42;20.92;;;12.85;;
47021;SDS011;32779;52.264;6.154;2022-08-16T05:04:08;16.48;;;11.93;;
47021;SDS011;32779;52.264;6.154;2022-08-16T05:06:33;23.98;;;13.27;;
47021;SDS011;32779;52.264;6.154;2022-08-16T05:08:59;17.63;;;12.65;;
47021;SDS011;32779;52.264;6.154;2022-08-16T05:11:25;17.40;;;11.88;;
47021;SDS011;32779;52.264;6.154;2022-08-16T05:13:52;18.65;;;12.48;;
47021;SDS011;32779;52.264;6.154;2022-08-16T05:16:20;16.65;;;12.20;;
47021;SDS011;32779;52.264;6.154;2022-08-16T05:18:48;16.05;;;11.45;;
47021;SDS011;32779;52.264;6.154;2022-08-16T05:21:15;16.58;;;11.93;;
47021;SDS011;32779;52.264;6.154;2022-08-16T05:23:41;16.65;;;11.07;;
47021;SDS011;32779;52.264;6.154;2022-08-16T05:26:07;17.17;;;11.60;;
47021;SDS011;32779;52.264;6.154;2022-08-16T05:28:33;15.52;;;11.77;;
47021;SDS011;32779;52.264;6.154;2022-08-16T05:30:59;16.83;;;12.82;;
47021;SDS011;32779;52.264;6.154;2022-08-16T05:33:25;17.67;;;12.00;;
47021;SDS011;32779;52.264;6.154;2022-08-16T05:35:51;15.02;;;11.57;;
47021;SDS011;32779;52.264;6.154;2022-08-16T05:38:17;19.88;;;12.68;;
47021;SDS011;32779;52.264;6.154;2022-08-16T05:40:44;16.85;;;11.90;;
47021;SDS011;32779;52.264;6.154;2022-08-16T05:43:10;19.08;;;11.95;;
47021;SDS011;32779;52.264;6.154;2022-08-16T05:45:35;18.98;;;12.13;;
47021;SDS011;32779;52.264;6.154;2022-08-16T05:48:01;16.10;;;11.23;;
47021;SDS011;32779;52.264;6.154;2022-08-16T05:50:27;16.90;;;11.85;;
47021;SDS011;32779;52.264;6.154;2022-08-16T05:52:53;17.90;;;13.98;;
47021;SDS011;32779;52.264;6.154;2022-08-16T05:55:18;18.75;;;13.00;;
47021;SDS011;32779;52.264;6.154;2022-08-16T05:57:47;15.70;;;11.57;;
47021;SDS011;32779;52.264;6.154;2022-08-16T06:00:13;14.88;;;11.98;;
47021;SDS011;32779;52.264;6.154;2022-08-16T06:02:39;17.48;;;13.32;;
47021;SDS011;32779;52.264;6.154;2022-08-16T06:05:06;18.40;;;11.80;;
47021;SDS011;32779;52.264;6.154;2022-08-16T06:07:32;19.77;;;13.43;;
47021;SDS011;32779;52.264;6.154;2022-08-16T06:09:58;17.17;;;13.15;;
47021;SDS011;32779;52.264;6.154;2022-08-16T06:12:25;19.13;;;13.13;;
47021;SDS011;32779;52.264;6.154;2022-08-16T06:14:52;18.20;;;12.98;;
47021;SDS011;32779;52.264;6.154;2022-08-16T06:17:21;18.70;;;12.60;;
47021;SDS011;32779;52.264;6.154;2022-08-16T06:19:47;16.70;;;12.48;;
47021;SDS011;32779;52.264;6.154;2022-08-16T06:22:12;17.15;;;12.43;;
47021;SDS011;32779;52.264;6.154;2022-08-16T06:24:39;21.73;;;13.48;;
47021;SDS011;32779;52.264;6.154;2022-08-16T06:27:04;17.58;;;12.43;;
47021;SDS011;32779;52.264;6.154;2022-08-16T06:29:30;19.40;;;12.95;;
47021;SDS011;32779;52.264;6.154;2022-08-16T06:31:56;21.25;;;14.63;;
47021;SDS011;32779;52.264;6.154;2022-08-16T06:34:21;17.80;;;12.32;;
47021;SDS011;32779;52.264;6.154;2022-08-16T06:36:47;20.00;;;12.98;;
47021;SDS011;32779;52.264;6.154;2022-08-16T06:39:12;18.15;;;12.80;;
47021;SDS011;32779;52.264;6.154;2022-08-16T06:41:38;17.33;;;12.98;;
47021;SDS011;32779;52.264;6.154;2022-08-16T06:44:03;16.90;;;12.25;;
47021;SDS011;32779;52.264;6.154;2022-08-16T06:46:31;16.92;;;12.63;;
47021;SDS011;32779;52.264;6.154;2022-08-16T06:48:59;17.00;;;11.60;;
47021;SDS011;32779;52.264;6.154;2022-08-16T06:51:26;15.55;;;11.07;;
47021;SDS011;32779;52.264;6.154;2022-08-16T06:53:51;15.68;;;11.27;;
47021;SDS011;32779;52.264;6.154;2022-08-16T06:56:17;15.10;;;11.48;;
47021;SDS011;32779;52.264;6.154;2022-08-16T06:58:42;18.00;;;12.15;;
47021;SDS011;32779;52.264;6.154;2022-08-16T07:01:08;26.48;;;13.38;;
47021;SDS011;32779;52.264;6.154;2022-08-16T07:03:34;16.13;;;11.38;;
47021;SDS011;32779;52.264;6.154;2022-08-16T07:06:00;14.73;;;11.02;;
47021;SDS011;32779;52.264;6.154;2022-08-16T07:08:25;13.50;;;10.07;;
47021;SDS011;32779;52.264;6.154;2022-08-16T07:10:51;12.70;;;9.50;;
47021;SDS011;32779;52.264;6.154;2022-08-16T07:13:17;17.17;;;10.77;;
47021;SDS011;32779;52.264;6.154;2022-08-16T07:15:43;15.43;;;10.48;;
47021;SDS011;32779;52.264;6.154;2022-08-16T07:18:09;17.02;;;11.00;;
47021;SDS011;32779;52.264;6.154;2022-08-16T07:20:35;15.82;;;10.43;;
47021;SDS011;32779;52.264;6.154;2022-08-16T07:23:02;14.23;;;10.23;;
47021;SDS011;32779;52.264;6.154;2022-08-16T07:25:31;21.38;;;10.25;;
47021;SDS011;32779;52.264;6.154;2022-08-16T07:27:57;14.20;;;10.60;;
47021;SDS011;32779;52.264;6.154;2022-08-16T07:30:23;15.63;;;10.25;;
47021;SDS011;32779;52.264;6.154;2022-08-16T07:32:49;15.23;;;10.35;;
47021;SDS011;32779;52.264;6.154;2022-08-16T07:35:15;12.60;;;9.27;;
47021;SDS011;32779;52.264;6.154;2022-08-16T07:37:41;13.45;;;9.18;;
47021;SDS011;32779;52.264;6.154;2022-08-16T07:40:07;14.30;;;9.50;;
47021;SDS011;32779;52.264;6.154;2022-08-16T07:42:33;20.92;;;8.77;;
47021;SDS011;32779;52.264;6.154;2022-08-16T07:44:58;15.30;;;9.95;;
47021;SDS011;32779;52.264;6.154;2022-08-16T07:47:24;13.32;;;8.77;;
47021;SDS011;32779;52.264;6.154;2022-08-16T07:49:50;13.00;;;8.32;;
47021;SDS011;32779;52.264;6.154;2022-08-16T07:52:15;10.18;;;8.10;;
47021;SDS011;32779;52.264;6.154;2022-08-16T07:54:41;13.02;;;8.40;;
47021;SDS011;32779;52.264;6.154;2022-08-16T07:57:06;12.90;;;7.05;;
47021;SDS011;32779;52.264;6.154;2022-08-16T07:59:32;10.13;;;7.00;;
47021;SDS011;32779;52.264;6.154;2022-08-16T08:01:58;9.88;;;7.53;;
47021;SDS011;32779;52.264;6.154;2022-08-16T08:04:23;9.13;;;6.53;;
47021;SDS011;32779;52.264;6.154;2022-08-16T08:06:50;9.57;;;6.80;;
47021;SDS011;32779;52.264;6.154;2022-08-16T08:09:16;7.75;;;6.82;;
47021;SDS011;32779;52.264;6.154;2022-08-16T08:11:42;9.85;;;6.10;;
47021;SDS011;32779;52.264;6.154;2022-08-16T08:14:09;10.20;;;6.53;;
47021;SDS011;32779;52.264;6.154;2022-08-16T08:16:36;8.65;;;5.60;;
47021;SDS011;32779;52.264;6.154;2022-08-16T08:19:02;8.40;;;5.43;;
47021;SDS011;32779;52.264;6.154;2022-08-16T08:21:29;9.35;;;6.03;;
47021;SDS011;32779;52.264;6.154;2022-08-16T08:23:56;7.43;;;5.32;;
47021;SDS011;32779;52.264;6.154;2022-08-16T08:26:22;6.38;;;5.13;;
47021;SDS011;32779;52.264;6.154;2022-08-16T08:28:49;7.30;;;4.85;;
47021;SDS011;32779;52.264;6.154;2022-08-16T08:31:14;10.45;;;5.72;;
47021;SDS011;32779;52.264;6.154;2022-08-16T08:33:40;12.93;;;5.60;;
47021;SDS011;32779;52.264;6.154;2022-08-16T08:36:06;9.73;;;4.90;;
47021;SDS011;32779;52.264;6.154;2022-08-16T08:38:37;5.40;;;4.45;;
47021;SDS011;32779;52.264;6.154;2022-08-16T08:41:03;5.78;;;4.18;;
47021;SDS011;32779;52.264;6.154;2022-08-16T08:43:32;11.07;;;4.22;;
47021;SDS011;32779;52.264;6.154;2022-08-16T08:45:58;4.68;;;3.80;;
47021;SDS011;32779;52.264;6.154;2022-08-16T08:48:24;8.48;;;3.72;;
47021;SDS011;32779;52.264;6.154;2022-08-16T08:50:49;6.38;;;3.20;;
47021;SDS011;32779;52.264;6.154;2022-08-16T08:53:15;5.70;;;3.65;;
47021;SDS011;32779;52.264;6.154;2022-08-16T08:55:41;6.65;;;3.65;;
47021;SDS011;32779;52.264;6.154;2022-08-16T08:58:07;6.43;;;3.40;;
47021;SDS011;32779;52.264;6.154;2022-08-16T09:00:33;7.72;;;3.47;;
47021;SDS011;32779;52.264;6.154;2022-08-16T09:02:59;9.07;;;3.78;;
47021;SDS011;32779;52.264;6.154;2022-08-16T09:05:25;6.65;;;3.60;;
47021;SDS011;32779;52.264;6.154;2022-08-16T09:07:51;4.22;;;3.30;;
47021;SDS011;32779;52.264;6.154;2022-08-16T09:10:19;6.03;;;2.95;;
47021;SDS011;32779;52.264;6.154;2022-08-16T09:12:45;4.72;;;3.00;;
47021;SDS011;32779;52.264;6.154;2022-08-16T09:15:12;2.88;;;2.40;;
47021;SDS011;32779;52.264;6.154;2022-08-16T09:17:39;4.60;;;2.70;;
47021;SDS011;32779;52.264;6.154;2022-08-16T09:20:06;6.78;;;2.90;;
47021;SDS011;32779;52.264;6.154;2022-08-16T09:22:34;5.60;;;2.92;;
47021;SDS011;32779;52.264;6.154;2022-08-16T09:25:01;2.33;;;2.13;;
47021;SDS011;32779;52.264;6.154;2022-08-16T09:27:30;6.38;;;2.50;;
47021;SDS011;32779;52.264;6.154;2022-08-16T09:29:56;3.42;;;2.53;;
47021;SDS011;32779;52.264;6.154;2022-08-16T09:32:22;4.68;;;2.17;;
47021;SDS011;32779;52.264;6.154;2022-08-16T09:34:47;3.55;;;2.15;;
47021;SDS011;32779;52.264;6.154;2022-08-16T09:37:13;6.35;;;2.70;;
47021;SDS011;32779;52.264;6.154;2022-08-16T09:39:40;5.18;;;2.70;;
47021;SDS011;32779;52.264;6.154;2022-08-16T09:42:09;7.05;;;2.53;;
47021;SDS011;32779;52.264;6.154;2022-08-16T09:44:35;7.68;;;2.88;;
47021;SDS011;32779;52.264;6.154;2022-08-16T09:47:01;4.15;;;2.08;;
47021;SDS011;32779;52.264;6.154;2022-08-16T09:49:27;4.68;;;2.50;;
47021;SDS011;32779;52.264;6.154;2022-08-16T09:51:52;4.15;;;2.35;;
47021;SDS011;32779;52.264;6.154;2022-08-16T09:54:22;6.55;;;2.55;;
47021;SDS011;32779;52.264;6.154;2022-08-16T09:56:49;5.30;;;2.50;;
47021;SDS011;32779;52.264;6.154;2022-08-16T09:59:15;4.18;;;2.10;;
47021;SDS011;32779;52.264;6.154;2022-08-16T10:01:41;4.90;;;2.60;;
47021;SDS011;32779;52.264;6.154;2022-08-16T10:04:09;4.88;;;2.70;;
47021;SDS011;32779;52.264;6.154;2022-08-16T10:06:36;3.28;;;2.13;;
47021;SDS011;32779;52.264;6.154;2022-08-16T10:09:06;3.72;;;2.13;;
47021;SDS011;32779;52.264;6.154;2022-08-16T10:11:34;2.33;;;2.13;;
47021;SDS011;32779;52.264;6.154;2022-08-16T10:14:19;9.30;;;2.50;;
47021;SDS011;32779;52.264;6.154;2022-08-16T10:16:45;3.17;;;2.20;;
47021;SDS011;32779;52.264;6.154;2022-08-16T10:19:11;5.28;;;2.65;;
47021;SDS011;32779;52.264;6.154;2022-08-16T10:21:37;5.68;;;2.47;;
47021;SDS011;32779;52.264;6.154;2022-08-16T10:24:04;3.70;;;1.80;;
47021;SDS011;32779;52.264;6.154;2022-08-16T10:26:31;9.65;;;2.33;;
47021;SDS011;32779;52.264;6.154;2022-08-16T10:28:57;4.60;;;2.47;;
47021;SDS011;32779;52.264;6.154;2022-08-16T10:31:23;2.50;;;2.30;;
47021;SDS011;32779;52.264;6.154;2022-08-16T10:33:50;7.65;;;2.70;;
47021;SDS011;32779;52.264;6.154;2022-08-16T10:36:15;4.13;;;2.30;;
47021;SDS011;32779;52.264;6.154;2022-08-16T10:38:41;7.45;;;2.88;;
47021;SDS011;32779;52.264;6.154;2022-08-16T10:41:07;5.57;;;3.33;;
47021;SDS011;32779;52.264;6.154;2022-08-16T10:43:35;5.00;;;2.72;;
47021;SDS011;32779;52.264;6.154;2022-08-16T10:46:01;3.42;;;2.72;;
47021;SDS011;32779;52.264;6.154;2022-08-16T10:48:28;4.93;;;2.67;;
47021;SDS011;32779;52.264;6.154;2022-08-16T10:50:55;3.72;;;2.67;;
47021;SDS011;32779;52.264;6.154;2022-08-16T10:53:22;8.35;;;2.92;;
47021;SDS011;32779;52.264;6.154;2022-08-16T10:55:50;6.22;;;2.97;;
47021;SDS011;32779;52.264;6.154;2022-08-16T10:58:15;8.15;;;2.92;;
47021;SDS011;32779;52.264;6.154;2022-08-16T11:00:41;4.53;;;3.10;;
47021;SDS011;32779;52.264;6.154;2022-08-16T11:03:07;6.97;;;3.42;;
47021;SDS011;32779;52.264;6.154;2022-08-16T11:05:35;5.13;;;3.10;;
47021;SDS011;32779;52.264;6.154;2022-08-16T11:08:03;5.60;;;3.10;;
47021;SDS011;32779;52.264;6.154;2022-08-16T11:10:30;5.07;;;3.30;;
47021;SDS011;32779;52.264;6.154;2022-08-16T11:13:02;7.93;;;3.38;;
47021;SDS011;32779;52.264;6.154;2022-08-16T11:15:30;5.72;;;3.45;;
47021;SDS011;32779;52.264;6.154;2022-08-16T11:17:56;4.05;;;3.25;;
47021;SDS011;32779;52.264;6.154;2022-08-16T11:20:22;4.40;;;3.20;;
47021;SDS011;32779;52.264;6.154;2022-08-16T11:22:48;7.22;;;3.55;;
47021;SDS011;32779;52.264;6.154;2022-08-16T11:25:15;5.53;;;3.22;;
47021;SDS011;32779;52.264;6.154;2022-08-16T11:27:43;6.32;;;3.65;;
47021;SDS011;32779;52.264;6.154;2022-08-16T11:30:10;6.63;;;3.33;;
47021;SDS011;32779;52.264;6.154;2022-08-16T11:32:38;9.40;;;3.10;;
47021;SDS011;32779;52.264;6.154;2022-08-16T11:35:08;6.40;;;3.30;;
47021;SDS011;32779;52.264;6.154;2022-08-16T11:37:36;7.53;;;3.47;;
47021;SDS011;32779;52.264;6.154;2022-08-16T11:40:03;6.00;;;3.20;;
47021;SDS011;32779;52.264;6.154;2022-08-16T11:42:30;4.90;;;2.80;;
47021;SDS011;32779;52.264;6.154;2022-08-16T11:44:56;4.30;;;2.70;;
47021;SDS011;32779;52.264;6.154;2022-08-16T11:47:21;7.47;;;3.20;;
47021;SDS011;32779;52.264;6.154;2022-08-16T11:49:47;4.30;;;2.80;;
47021;SDS011;32779;52.264;6.154;2022-08-16T11:52:13;7.47;;;3.30;;
47021;SDS011;32779;52.264;6.154;2022-08-16T11:54:41;5.22;;;2.80;;
47021;SDS011;32779;52.264;6.154;2022-08-16T11:57:08;6.53;;;2.67;;
47021;SDS011;32779;52.264;6.154;2022-08-16T11:59:33;4.93;;;2.50;;
47021;SDS011;32779;52.264;6.154;2022-08-16T12:02:00;4.22;;;2.75;;
47021;SDS011;32779;52.264;6.154;2022-08-16T12:04:27;5.57;;;3.00;;
47021;SDS011;32779;52.264;6.154;2022-08-16T12:06:53;11.35;;;2.72;;
47021;SDS011;32779;52.264;6.154;2022-08-16T12:09:18;3.90;;;2.72;;
47021;SDS011;32779;52.264;6.154;2022-08-16T12:11:44;6.90;;;3.40;;
47021;SDS011;32779;52.264;6.154;2022-08-16T12:14:09;4.28;;;2.53;;
47021;SDS011;32779;52.264;6.154;2022-08-16T12:16:35;4.05;;;2.72;;
47021;SDS011;32779;52.264;6.154;2022-08-16T12:19:03;5.22;;;2.65;;
47021;SDS011;32779;52.264;6.154;2022-08-16T12:21:30;6.00;;;2.70;;
47021;SDS011;32779;52.264;6.154;2022-08-16T12:23:56;5.93;;;2.42;;
47021;SDS011;32779;52.264;6.154;2022-08-16T12:26:22;6.65;;;2.28;;
47021;SDS011;32779;52.264;6.154;2022-08-16T12:28:48;6.13;;;2.40;;
47021;SDS011;32779;52.264;6.154;2022-08-16T12:31:16;2.45;;;2.25;;
47021;SDS011;32779;52.264;6.154;2022-08-16T12:33:42;4.45;;;2.83;;
47021;SDS011;32779;52.264;6.154;2022-08-16T12:36:08;4.72;;;2.47;;
47021;SDS011;32779;52.264;6.154;2022-08-16T12:38:33;4.90;;;2.75;;
47021;SDS011;32779;52.264;6.154;2022-08-16T12:40:59;4.22;;;2.90;;
47021;SDS011;32779;52.264;6.154;2022-08-16T12:43:25;5.00;;;3.00;;
47021;SDS011;32779;52.264;6.154;2022-08-16T12:45:53;4.32;;;2.60;;
47021;SDS011;32779;52.264;6.154;2022-08-16T12:48:21;3.30;;;2.53;;
47021;SDS011;32779;52.264;6.154;2022-08-16T12:51:09;8.32;;;3.03;;
47021;SDS011;32779;52.264;6.154;2022-08-16T12:53:36;4.30;;;2.33;;
47021;SDS011;32779;52.264;6.154;2022-08-16T12:56:03;3.80;;;2.55;;
47021;SDS011;32779;52.264;6.154;2022-08-16T12:58:29;3.88;;;2.85;;
47021;SDS011;32779;52.264;6.154;2022-08-16T13:00:55;6.18;;;3.10;;
47021;SDS011;32779;52.264;6.154;2022-08-16T13:03:21;9.00;;;2.20;;
47021;SDS011;32779;52.264;6.154;2022-08-16T13:05:47;3.17;;;1.98;;
47021;SDS011;32779;52.264;6.154;2022-08-16T13:08:15;3.67;;;2.10;;
47021;SDS011;32779;52.264;6.154;2022-08-16T13:10:43;6.90;;;2.20;;
47021;SDS011;32779;52.264;6.154;2022-08-16T13:13:11;5.20;;;2.63;;
47021;SDS011;32779;52.264;6.154;2022-08-16T13:15:40;4.63;;;2.20;;
47021;SDS011;32779;52.264;6.154;2022-08-16T13:18:07;4.50;;;2.10;;
47021;SDS011;32779;52.264;6.154;2022-08-16T13:20:33;7.55;;;2.40;;
47021;SDS011;32779;52.264;6.154;2022-08-16T13:23:06;3.35;;;2.05;;
47021;SDS011;32779;52.264;6.154;2022-08-16T13:25:35;3.28;;;2.25;;
47021;SDS011;32779;52.264;6.154;2022-08-16T13:28:05;3.30;;;2.30;;
47021;SDS011;32779;52.264;6.154;2022-08-16T13:30:33;4.55;;;2.20;;
47021;SDS011;32779;52.264;6.154;2022-08-16T13:33:01;3.08;;;2.28;;
47021;SDS011;32779;52.264;6.154;2022-08-16T13:35:28;2.70;;;2.38;;
47021;SDS011;32779;52.264;6.154;2022-08-16T13:37:54;2.72;;;2.50;;
47021;SDS011;32779;52.264;6.154;2022-08-16T13:40:20;4.10;;;2.15;;
47021;SDS011;32779;52.264;6.154;2022-08-16T13:42:46;4.22;;;2.35;;
47021;SDS011;32779;52.264;6.154;2022-08-16T13:45:14;4.80;;;2.30;;
47021;SDS011;32779;52.264;6.154;2022-08-16T13:47:40;6.88;;;2.45;;
47021;SDS011;32779;52.264;6.154;2022-08-16T13:50:06;6.90;;;2.60;;
47021;SDS011;32779;52.264;6.154;2022-08-16T13:52:33;4.82;;;2.78;;
47021;SDS011;32779;52.264;6.154;2022-08-16T13:54:59;7.65;;;2.63;;
47021;SDS011;32779;52.264;6.154;2022-08-16T13:57:25;6.97;;;2.63;;
47021;SDS011;32779;52.264;6.154;2022-08-16T13:59:50;7.20;;;3.03;;
47021;SDS011;32779;52.264;6.154;2022-08-16T14:02:16;6.15;;;2.60;;
47021;SDS011;32779;52.264;6.154;2022-08-16T14:04:41;6.28;;;2.92;;
47021;SDS011;32779;52.264;6.154;2022-08-16T14:07:08;6.53;;;2.92;;
47021;SDS011;32779;52.264;6.154;2022-08-16T14:09:36;4.85;;;3.17;;
47021;SDS011;32779;52.264;6.154;2022-08-16T14:12:04;5.50;;;3.08;;
47021;SDS011;32779;52.264;6.154;2022-08-16T14:14:31;4.75;;;3.03;;
47021;SDS011;32779;52.264;6.154;2022-08-16T14:16:57;3.72;;;3.05;;
47021;SDS011;32779;52.264;6.154;2022-08-16T14:19:25;4.60;;;2.92;;
47021;SDS011;32779;52.264;6.154;2022-08-16T14:21:53;5.93;;;3.40;;
47021;SDS011;32779;52.264;6.154;2022-08-16T14:24:19;4.88;;;2.75;;
47021;SDS011;32779;52.264;6.154;2022-08-16T14:26:45;4.50;;;2.88;;
47021;SDS011;32779;52.264;6.154;2022-08-16T14:29:11;5.60;;;3.40;;
47021;SDS011;32779;52.264;6.154;2022-08-16T14:31:37;7.10;;;3.00;;
47021;SDS011;32779;52.264;6.154;2022-08-16T14:34:03;6.88;;;3.00;;
47021;SDS011;32779;52.264;6.154;2022-08-16T14:36:29;9.07;;;3.15;;
47021;SDS011;32779;52.264;6.154;2022-08-16T14:38:59;7.03;;;3.00;;